sensor_id;sensor_type;location;lat;lon;timestamp;P1;durP1;ratioP1;P2;durP2;ratioP2
54557;SDS011;40452;50.080;20.040;2022-08-19T04:44:37;19.98;;;10.55;;
54557;SDS011;40452;50.080;20.040;2022-08-19T04:47:03;15.60;;;9.82;;
54557;SDS011;40452;50.080;20.040;2022-08-19T04:49:31;16.13;;;10.13;;
54557;SDS011;40452;50.080;20.040;2022-08-19T04:51:56;13.77;;;10.75;;
54557;SDS011;40452;50.080;20.040;2022-08-19T04:54:23;15.63;;;9.93;;
54557;SDS011;40452;50.080;20.040;2022-08-19T04:56:50;20.77;;;10.45;;
54557;SDS011;40452;50.080;20.040;2022-08-19T04:59:17;15.52;;;10.27;;
54557;SDS011;40452;50.080;20.040;2022-08-19T05:01:44;14.55;;;10.80;;
54557;SDS011;40452;50.080;20.040;2022-08-19T05:04:13;14.65;;;10.73;;
54557;SDS011;40452;50.080;20.040;2022-08-19T05:06:39;18.25;;;11.27;;
54557;SDS011;40452;50.080;20.040;2022-08-19T05:09:05;17.05;;;11.57;;
54557;SDS011;40452;50.080;20.040;2022-08-19T05:11:34;21.27;;;12.40;;
54557;SDS011;40452;50.080;20.040;2022-08-19T05:14:03;18.88;;;12.65;;
54557;SDS011;40452;50.080;20.040;2022-08-19T05:16:29;20.90;;;12.55;;
54557;SDS011;40452;50.080;20.040;2022-08-19T05:18:54;21.20;;;12.10;;
54557;SDS011;40452;50.080;20.040;2022-08-19T05:21:39;15.88;;;12.10;;
54557;SDS011;40452;50.080;20.040;2022-08-19T05:24:24;15.48;;;11.30;;
54557;SDS011;40452;50.080;20.040;2022-08-19T05:26:51;16.85;;;11.52;;
54557;SDS011;40452;50.080;20.040;2022-08-19T05:29:21;19.52;;;11.70;;
54557;SDS011;40452;50.080;20.040;2022-08-19T05:31:48;20.35;;;11.95;;
54557;SDS011;40452;50.080;20.040;2022-08-19T05:34:17;21.48;;;11.85;;
54557;SDS011;40452;50.080;20.040;2022-08-19T05:36:46;17.02;;;11.52;;
54557;SDS011;40452;50.080;20.040;2022-08-19T05:39:13;13.00;;;11.52;;
54557;SDS011;40452;50.080;20.040;2022-08-19T05:41:41;19.10;;;11.80;;
54557;SDS011;40452;50.080;20.040;2022-08-19T05:44:08;17.55;;;12.18;;
54557;SDS011;40452;50.080;20.040;2022-08-19T05:46:34;20.98;;;12.23;;
54557;SDS011;40452;50.080;20.040;2022-08-19T05:49:02;20.45;;;12.18;;
54557;SDS011;40452;50.080;20.040;2022-08-19T05:51:32;19.52;;;12.63;;
54557;SDS011;40452;50.080;20.040;2022-08-19T05:53:59;19.58;;;12.10;;
54557;SDS011;40452;50.080;20.040;2022-08-19T05:56:26;14.30;;;10.77;;
54557;SDS011;40452;50.080;20.040;2022-08-19T05:58:51;20.33;;;11.75;;
54557;SDS011;40452;50.080;20.040;2022-08-19T06:01:19;13.80;;;11.45;;
54557;SDS011;40452;50.080;20.040;2022-08-19T06:03:45;19.48;;;11.65;;
54557;SDS011;40452;50.080;20.040;2022-08-19T06:06:12;18.35;;;11.07;;
54557;SDS011;40452;50.080;20.040;2022-08-19T06:08:40;14.93;;;10.95;;
54557;SDS011;40452;50.080;20.040;2022-08-19T06:11:15;16.80;;;10.80;;
54557;SDS011;40452;50.080;20.040;2022-08-19T06:13:43;16.83;;;11.13;;
54557;SDS011;40452;50.080;20.040;2022-08-19T06:16:12;18.88;;;11.48;;
54557;SDS011;40452;50.080;20.040;2022-08-19T06:18:45;14.90;;;10.95;;
54557;SDS011;40452;50.080;20.040;2022-08-19T06:21:11;18.17;;;11.18;;
54557;SDS011;40452;50.080;20.040;2022-08-19T06:23:36;17.65;;;11.13;;
54557;SDS011;40452;50.080;20.040;2022-08-19T06:26:02;17.35;;;11.88;;
54557;SDS011;40452;50.080;20.040;2022-08-19T06:28:27;17.95;;;10.70;;
54557;SDS011;40452;50.080;20.040;2022-08-19T06:30:53;16.00;;;10.35;;
54557;SDS011;40452;50.080;20.040;2022-08-19T06:33:18;17.80;;;10.85;;
54557;SDS011;40452;50.080;20.040;2022-08-19T06:35:44;14.40;;;10.55;;
54557;SDS011;40452;50.080;20.040;2022-08-19T06:38:09;13.63;;;10.38;;
54557;SDS011;40452;50.080;20.040;2022-08-19T06:40:35;14.00;;;10.23;;
54557;SDS011;40452;50.080;20.040;2022-08-19T06:43:02;13.57;;;10.40;;
54557;SDS011;40452;50.080;20.040;2022-08-19T06:45:28;15.48;;;10.93;;
54557;SDS011;40452;50.080;20.040;2022-08-19T06:47:55;18.65;;;10.90;;
54557;SDS011;40452;50.080;20.040;2022-08-19T06:50:21;14.90;;;10.52;;
54557;SDS011;40452;50.080;20.040;2022-08-19T06:52:48;17.25;;;11.00;;
54557;SDS011;40452;50.080;20.040;2022-08-19T06:55:13;16.63;;;11.43;;
54557;SDS011;40452;50.080;20.040;2022-08-19T06:57:40;17.88;;;11.57;;
54557;SDS011;40452;50.080;20.040;2022-08-19T07:00:07;17.98;;;11.50;;
54557;SDS011;40452;50.080;20.040;2022-08-19T07:02:38;17.50;;;10.55;;
54557;SDS011;40452;50.080;20.040;2022-08-19T07:05:05;16.30;;;10.70;;
54557;SDS011;40452;50.080;20.040;2022-08-19T07:07:32;22.23;;;10.75;;
54557;SDS011;40452;50.080;20.040;2022-08-19T07:09:58;23.75;;;11.80;;
54557;SDS011;40452;50.080;20.040;2022-08-19T07:12:23;16.95;;;11.25;;
54557;SDS011;40452;50.080;20.040;2022-08-19T07:14:49;20.33;;;12.38;;
54557;SDS011;40452;50.080;20.040;2022-08-19T07:17:14;25.85;;;13.07;;
54557;SDS011;40452;50.080;20.040;2022-08-19T07:19:40;22.10;;;12.73;;
54557;SDS011;40452;50.080;20.040;2022-08-19T07:22:07;18.90;;;11.85;;
54557;SDS011;40452;50.080;20.040;2022-08-19T07:24:34;19.50;;;12.35;;
54557;SDS011;40452;50.080;20.040;2022-08-19T07:27:01;21.80;;;12.18;;
54557;SDS011;40452;50.080;20.040;2022-08-19T07:29:28;20.42;;;11.65;;
54557;SDS011;40452;50.080;20.040;2022-08-19T07:31:56;22.38;;;12.65;;
54557;SDS011;40452;50.080;20.040;2022-08-19T07:34:23;17.27;;;12.07;;
54557;SDS011;40452;50.080;20.040;2022-08-19T07:36:50;20.13;;;12.07;;
54557;SDS011;40452;50.080;20.040;2022-08-19T07:39:18;20.20;;;12.70;;
54557;SDS011;40452;50.080;20.040;2022-08-19T07:41:47;18.83;;;11.95;;
54557;SDS011;40452;50.080;20.040;2022-08-19T07:44:13;27.88;;;12.48;;
54557;SDS011;40452;50.080;20.040;2022-08-19T07:46:42;25.15;;;13.82;;
54557;SDS011;40452;50.080;20.040;2022-08-19T07:49:13;22.45;;;12.77;;
54557;SDS011;40452;50.080;20.040;2022-08-19T07:51:44;28.30;;;14.65;;
54557;SDS011;40452;50.080;20.040;2022-08-19T07:54:12;31.13;;;16.20;;
54557;SDS011;40452;50.080;20.040;2022-08-19T07:56:37;27.58;;;15.93;;
54557;SDS011;40452;50.080;20.040;2022-08-19T07:59:03;26.70;;;13.57;;
54557;SDS011;40452;50.080;20.040;2022-08-19T08:01:29;26.70;;;14.23;;
54557;SDS011;40452;50.080;20.040;2022-08-19T08:03:56;26.65;;;14.13;;
54557;SDS011;40452;50.080;20.040;2022-08-19T08:06:41;28.15;;;14.60;;
54557;SDS011;40452;50.080;20.040;2022-08-19T08:09:27;27.23;;;14.55;;
54557;SDS011;40452;50.080;20.040;2022-08-19T08:12:03;27.15;;;14.35;;
54557;SDS011;40452;50.080;20.040;2022-08-19T08:14:37;32.47;;;15.00;;
54557;SDS011;40452;50.080;20.040;2022-08-19T08:17:07;25.92;;;15.45;;
54557;SDS011;40452;50.080;20.040;2022-08-19T08:19:33;28.75;;;15.65;;
54557;SDS011;40452;50.080;20.040;2022-08-19T08:22:00;33.50;;;16.13;;
54557;SDS011;40452;50.080;20.040;2022-08-19T08:24:27;32.13;;;15.13;;
54557;SDS011;40452;50.080;20.040;2022-08-19T08:26:54;28.67;;;15.57;;
54557;SDS011;40452;50.080;20.040;2022-08-19T08:29:19;26.90;;;14.55;;
54557;SDS011;40452;50.080;20.040;2022-08-19T08:31:45;27.58;;;13.80;;
54557;SDS011;40452;50.080;20.040;2022-08-19T08:34:12;29.27;;;14.02;;
54557;SDS011;40452;50.080;20.040;2022-08-19T08:36:43;23.15;;;13.75;;
54557;SDS011;40452;50.080;20.040;2022-08-19T08:39:20;23.13;;;13.45;;
54557;SDS011;40452;50.080;20.040;2022-08-19T08:44:13;25.65;;;12.45;;
54557;SDS011;40452;50.080;20.040;2022-08-19T08:46:49;27.25;;;12.48;;
54557;SDS011;40452;50.080;20.040;2022-08-19T08:54:54;21.38;;;11.95;;
54557;SDS011;40452;50.080;20.040;2022-08-19T08:57:24;18.02;;;11.40;;
54557;SDS011;40452;50.080;20.040;2022-08-19T09:00:06;25.45;;;12.18;;
54557;SDS011;40452;50.080;20.040;2022-08-19T09:02:35;20.65;;;12.20;;
54557;SDS011;40452;50.080;20.040;2022-08-19T09:05:01;21.65;;;14.10;;
54557;SDS011;40452;50.080;20.040;2022-08-19T09:10:27;21.85;;;12.13;;
54557;SDS011;40452;50.080;20.040;2022-08-19T09:13:16;26.58;;;12.57;;
54557;SDS011;40452;50.080;20.040;2022-08-19T09:16:04;21.80;;;12.43;;
54557;SDS011;40452;50.080;20.040;2022-08-19T09:18:46;24.17;;;12.48;;
54557;SDS011;40452;50.080;20.040;2022-08-19T09:21:19;23.27;;;13.55;;
54557;SDS011;40452;50.080;20.040;2022-08-19T09:23:47;30.27;;;13.48;;
54557;SDS011;40452;50.080;20.040;2022-08-19T09:26:14;21.92;;;13.27;;
54557;SDS011;40452;50.080;20.040;2022-08-19T09:28:42;24.13;;;13.98;;
54557;SDS011;40452;50.080;20.040;2022-08-19T09:31:13;26.35;;;14.18;;
54557;SDS011;40452;50.080;20.040;2022-08-19T09:33:40;27.88;;;13.57;;
54557;SDS011;40452;50.080;20.040;2022-08-19T09:36:09;25.20;;;14.20;;
54557;SDS011;40452;50.080;20.040;2022-08-19T09:38:36;32.45;;;14.05;;
54557;SDS011;40452;50.080;20.040;2022-08-19T09:41:06;28.15;;;15.93;;
54557;SDS011;40452;50.080;20.040;2022-08-19T09:43:33;34.17;;;15.40;;
54557;SDS011;40452;50.080;20.040;2022-08-19T09:46:02;28.08;;;14.68;;
54557;SDS011;40452;50.080;20.040;2022-08-19T09:48:30;28.35;;;16.08;;
54557;SDS011;40452;50.080;20.040;2022-08-19T09:51:02;32.60;;;15.13;;
54557;SDS011;40452;50.080;20.040;2022-08-19T09:53:33;30.17;;;16.35;;
54557;SDS011;40452;50.080;20.040;2022-08-19T09:55:59;34.28;;;17.60;;
54557;SDS011;40452;50.080;20.040;2022-08-19T09:58:25;34.63;;;17.52;;
54557;SDS011;40452;50.080;20.040;2022-08-19T10:00:53;40.05;;;17.38;;
54557;SDS011;40452;50.080;20.040;2022-08-19T10:03:19;32.80;;;16.83;;
54557;SDS011;40452;50.080;20.040;2022-08-19T10:05:45;33.45;;;16.92;;
54557;SDS011;40452;50.080;20.040;2022-08-19T10:08:13;36.10;;;17.10;;
54557;SDS011;40452;50.080;20.040;2022-08-19T10:10:41;29.52;;;17.15;;
54557;SDS011;40452;50.080;20.040;2022-08-19T10:13:10;29.77;;;15.90;;
54557;SDS011;40452;50.080;20.040;2022-08-19T10:15:36;32.13;;;17.45;;
54557;SDS011;40452;50.080;20.040;2022-08-19T10:18:04;30.60;;;15.82;;
54557;SDS011;40452;50.080;20.040;2022-08-19T10:20:30;26.70;;;15.90;;
54557;SDS011;40452;50.080;20.040;2022-08-19T10:22:56;36.03;;;16.58;;
54557;SDS011;40452;50.080;20.040;2022-08-19T10:25:24;30.20;;;16.50;;
54557;SDS011;40452;50.080;20.040;2022-08-19T10:27:51;29.23;;;15.63;;
54557;SDS011;40452;50.080;20.040;2022-08-19T10:30:16;29.48;;;15.95;;
54557;SDS011;40452;50.080;20.040;2022-08-19T10:32:42;27.63;;;16.88;;
54557;SDS011;40452;50.080;20.040;2022-08-19T10:35:08;30.60;;;16.00;;
54557;SDS011;40452;50.080;20.040;2022-08-19T10:37:35;26.85;;;14.93;;
54557;SDS011;40452;50.080;20.040;2022-08-19T10:40:02;26.30;;;15.10;;
54557;SDS011;40452;50.080;20.040;2022-08-19T10:42:29;27.52;;;15.35;;
54557;SDS011;40452;50.080;20.040;2022-08-19T10:44:56;28.33;;;15.40;;
54557;SDS011;40452;50.080;20.040;2022-08-19T10:47:22;27.30;;;15.18;;
54557;SDS011;40452;50.080;20.040;2022-08-19T10:49:48;26.15;;;15.38;;
54557;SDS011;40452;50.080;20.040;2022-08-19T10:52:32;24.38;;;14.07;;
54557;SDS011;40452;50.080;20.040;2022-08-19T10:54:58;25.17;;;14.70;;
54557;SDS011;40452;50.080;20.040;2022-08-19T10:57:43;16.83;;;12.73;;
54557;SDS011;40452;50.080;20.040;2022-08-19T11:00:09;19.73;;;12.13;;
54557;SDS011;40452;50.080;20.040;2022-08-19T11:02:35;15.07;;;11.63;;
54557;SDS011;40452;50.080;20.040;2022-08-19T11:05:01;20.92;;;11.93;;
54557;SDS011;40452;50.080;20.040;2022-08-19T11:07:27;17.70;;;11.40;;
54557;SDS011;40452;50.080;20.040;2022-08-19T11:09:52;18.58;;;12.55;;
54557;SDS011;40452;50.080;20.040;2022-08-19T11:12:18;18.25;;;11.75;;
54557;SDS011;40452;50.080;20.040;2022-08-19T11:14:44;19.75;;;11.82;;
54557;SDS011;40452;50.080;20.040;2022-08-19T11:17:09;17.58;;;12.15;;
54557;SDS011;40452;50.080;20.040;2022-08-19T11:19:38;17.33;;;11.75;;
54557;SDS011;40452;50.080;20.040;2022-08-19T11:22:06;20.25;;;10.90;;
54557;SDS011;40452;50.080;20.040;2022-08-19T11:24:34;18.33;;;10.77;;
54557;SDS011;40452;50.080;20.040;2022-08-19T11:27:02;17.95;;;10.68;;
54557;SDS011;40452;50.080;20.040;2022-08-19T11:29:31;15.90;;;11.02;;
54557;SDS011;40452;50.080;20.040;2022-08-19T11:31:57;18.70;;;12.05;;
54557;SDS011;40452;50.080;20.040;2022-08-19T11:34:24;20.75;;;12.05;;
54557;SDS011;40452;50.080;20.040;2022-08-19T11:36:51;19.40;;;11.75;;
54557;SDS011;40452;50.080;20.040;2022-08-19T11:39:18;19.20;;;11.95;;
54557;SDS011;40452;50.080;20.040;2022-08-19T11:41:46;14.90;;;10.65;;
54557;SDS011;40452;50.080;20.040;2022-08-19T11:44:12;19.63;;;10.93;;
54557;SDS011;40452;50.080;20.040;2022-08-19T11:46:39;18.45;;;11.68;;
54557;SDS011;40452;50.080;20.040;2022-08-19T11:49:05;16.77;;;10.82;;
54557;SDS011;40452;50.080;20.040;2022-08-19T11:51:32;19.13;;;10.35;;
54557;SDS011;40452;50.080;20.040;2022-08-19T11:53:59;14.90;;;10.60;;
54557;SDS011;40452;50.080;20.040;2022-08-19T11:56:26;14.63;;;9.77;;
54557;SDS011;40452;50.080;20.040;2022-08-19T11:58:52;15.45;;;10.07;;
54557;SDS011;40452;50.080;20.040;2022-08-19T12:01:20;12.52;;;10.68;;
54557;SDS011;40452;50.080;20.040;2022-08-19T12:03:47;18.33;;;10.43;;
54557;SDS011;40452;50.080;20.040;2022-08-19T12:06:15;14.55;;;9.80;;
54557;SDS011;40452;50.080;20.040;2022-08-19T12:08:44;16.77;;;10.70;;
54557;SDS011;40452;50.080;20.040;2022-08-19T12:11:10;18.50;;;10.95;;
54557;SDS011;40452;50.080;20.040;2022-08-19T12:13:37;14.52;;;10.60;;
54557;SDS011;40452;50.080;20.040;2022-08-19T12:16:07;17.70;;;9.95;;
54557;SDS011;40452;50.080;20.040;2022-08-19T12:18:36;13.77;;;9.13;;
54557;SDS011;40452;50.080;20.040;2022-08-19T12:21:02;11.73;;;9.60;;
54557;SDS011;40452;50.080;20.040;2022-08-19T12:23:28;12.93;;;9.77;;
54557;SDS011;40452;50.080;20.040;2022-08-19T12:25:54;12.73;;;9.98;;
54557;SDS011;40452;50.080;20.040;2022-08-19T12:28:23;16.33;;;9.77;;
54557;SDS011;40452;50.080;20.040;2022-08-19T12:30:50;14.27;;;9.38;;
54557;SDS011;40452;50.080;20.040;2022-08-19T12:33:16;17.50;;;9.25;;
54557;SDS011;40452;50.080;20.040;2022-08-19T12:35:43;12.68;;;9.18;;
54557;SDS011;40452;50.080;20.040;2022-08-19T12:38:11;13.50;;;8.70;;
54557;SDS011;40452;50.080;20.040;2022-08-19T12:40:38;13.43;;;9.25;;
54557;SDS011;40452;50.080;20.040;2022-08-19T12:43:05;12.73;;;8.80;;
54557;SDS011;40452;50.080;20.040;2022-08-19T12:45:31;11.60;;;8.82;;
54557;SDS011;40452;50.080;20.040;2022-08-19T12:47:56;12.13;;;9.43;;
54557;SDS011;40452;50.080;20.040;2022-08-19T12:50:22;11.98;;;9.15;;
54557;SDS011;40452;50.080;20.040;2022-08-19T12:52:48;15.27;;;8.82;;
54557;SDS011;40452;50.080;20.040;2022-08-19T12:55:14;15.45;;;9.25;;
54557;SDS011;40452;50.080;20.040;2022-08-19T12:57:39;16.98;;;9.93;;
54557;SDS011;40452;50.080;20.040;2022-08-19T13:00:10;17.10;;;9.57;;
54557;SDS011;40452;50.080;20.040;2022-08-19T13:02:39;12.48;;;9.32;;
54557;SDS011;40452;50.080;20.040;2022-08-19T13:05:07;15.18;;;9.35;;
54557;SDS011;40452;50.080;20.040;2022-08-19T13:07:34;13.88;;;9.27;;
54557;SDS011;40452;50.080;20.040;2022-08-19T13:10:02;12.02;;;8.45;;
54557;SDS011;40452;50.080;20.040;2022-08-19T13:12:28;13.38;;;9.18;;
54557;SDS011;40452;50.080;20.040;2022-08-19T13:14:54;14.25;;;9.10;;
54557;SDS011;40452;50.080;20.040;2022-08-19T13:17:20;11.52;;;8.98;;
54557;SDS011;40452;50.080;20.040;2022-08-19T13:19:45;11.25;;;9.30;;
54557;SDS011;40452;50.080;20.040;2022-08-19T13:22:11;14.02;;;9.15;;
54557;SDS011;40452;50.080;20.040;2022-08-19T13:24:37;17.80;;;11.75;;
54557;SDS011;40452;50.080;20.040;2022-08-19T13:27:03;15.75;;;10.90;;
54557;SDS011;40452;50.080;20.040;2022-08-19T13:29:28;16.02;;;12.10;;
54557;SDS011;40452;50.080;20.040;2022-08-19T13:32:12;19.55;;;9.57;;
54557;SDS011;40452;50.080;20.040;2022-08-19T13:34:56;13.68;;;9.35;;
54557;SDS011;40452;50.080;20.040;2022-08-19T13:37:22;12.77;;;8.95;;
54557;SDS011;40452;50.080;20.040;2022-08-19T13:40:06;11.50;;;8.77;;
54557;SDS011;40452;50.080;20.040;2022-08-19T13:42:36;11.85;;;8.70;;
54557;SDS011;40452;50.080;20.040;2022-08-19T13:45:02;15.07;;;8.77;;
54557;SDS011;40452;50.080;20.040;2022-08-19T13:47:29;16.20;;;8.63;;
54557;SDS011;40452;50.080;20.040;2022-08-19T13:49:55;13.32;;;8.73;;
54557;SDS011;40452;50.080;20.040;2022-08-19T13:52:20;12.73;;;9.05;;
54557;SDS011;40452;50.080;20.040;2022-08-19T13:54:46;11.73;;;9.00;;
54557;SDS011;40452;50.080;20.040;2022-08-19T13:57:12;10.88;;;9.07;;
54557;SDS011;40452;50.080;20.040;2022-08-19T13:59:38;13.95;;;8.60;;
54557;SDS011;40452;50.080;20.040;2022-08-19T14:02:03;13.85;;;9.07;;
54557;SDS011;40452;50.080;20.040;2022-08-19T14:04:30;11.10;;;8.63;;
54557;SDS011;40452;50.080;20.040;2022-08-19T14:06:56;13.00;;;8.77;;
54557;SDS011;40452;50.080;20.040;2022-08-19T14:09:21;10.63;;;9.20;;
54557;SDS011;40452;50.080;20.040;2022-08-19T14:11:47;11.85;;;8.70;;
54557;SDS011;40452;50.080;20.040;2022-08-19T14:14:15;15.52;;;8.73;;
54557;SDS011;40452;50.080;20.040;2022-08-19T14:16:40;11.18;;;8.40;;
54557;SDS011;40452;50.080;20.040;2022-08-19T14:19:06;12.55;;;8.57;;
54557;SDS011;40452;50.080;20.040;2022-08-19T14:21:32;12.15;;;9.07;;
54557;SDS011;40452;50.080;20.040;2022-08-19T14:23:59;22.05;;;10.75;;
54557;SDS011;40452;50.080;20.040;2022-08-19T14:26:25;45.08;;;18.63;;
54557;SDS011;40452;50.080;20.040;2022-08-19T14:28:50;35.03;;;17.15;;
54557;SDS011;40452;50.080;20.040;2022-08-19T14:31:17;28.13;;;13.43;;
54557;SDS011;40452;50.080;20.040;2022-08-19T14:33:44;21.52;;;11.27;;
54557;SDS011;40452;50.080;20.040;2022-08-19T14:36:14;21.02;;;11.25;;
54557;SDS011;40452;50.080;20.040;2022-08-19T14:38:40;17.67;;;10.07;;
54557;SDS011;40452;50.080;20.040;2022-08-19T14:41:17;43.88;;;16.65;;
54557;SDS011;40452;50.080;20.040;2022-08-19T14:43:45;44.42;;;15.85;;
54557;SDS011;40452;50.080;20.040;2022-08-19T14:46:13;35.47;;;14.32;;
54557;SDS011;40452;50.080;20.040;2022-08-19T14:48:40;26.63;;;12.05;;
54557;SDS011;40452;50.080;20.040;2022-08-19T14:51:06;21.67;;;10.77;;
54557;SDS011;40452;50.080;20.040;2022-08-19T14:53:32;21.67;;;10.45;;
54557;SDS011;40452;50.080;20.040;2022-08-19T14:56:01;19.20;;;10.13;;
54557;SDS011;40452;50.080;20.040;2022-08-19T14:58:31;15.73;;;9.82;;
54557;SDS011;40452;50.080;20.040;2022-08-19T15:00:58;17.95;;;9.48;;
54557;SDS011;40452;50.080;20.040;2022-08-19T15:03:24;15.32;;;8.70;;
54557;SDS011;40452;50.080;20.040;2022-08-19T15:05:50;15.25;;;8.70;;
54557;SDS011;40452;50.080;20.040;2022-08-19T15:08:16;14.68;;;8.40;;
54557;SDS011;40452;50.080;20.040;2022-08-19T15:10:42;12.75;;;8.63;;
54557;SDS011;40452;50.080;20.040;2022-08-19T15:13:07;12.68;;;7.97;;
54557;SDS011;40452;50.080;20.040;2022-08-19T15:15:34;14.40;;;8.13;;
54557;SDS011;40452;50.080;20.040;2022-08-19T15:17:59;16.98;;;8.38;;
54557;SDS011;40452;50.080;20.040;2022-08-19T15:20:27;15.90;;;8.40;;
54557;SDS011;40452;50.080;20.040;2022-08-19T15:22:53;13.23;;;8.63;;
54557;SDS011;40452;50.080;20.040;2022-08-19T15:25:19;14.73;;;8.38;;
54557;SDS011;40452;50.080;20.040;2022-08-19T15:27:45;14.85;;;8.68;;
54557;SDS011;40452;50.080;20.040;2022-08-19T15:30:11;17.20;;;8.70;;
54557;SDS011;40452;50.080;20.040;2022-08-19T15:32:42;9.60;;;7.80;;
54557;SDS011;40452;50.080;20.040;2022-08-19T15:35:07;14.05;;;7.90;;
54557;SDS011;40452;50.080;20.040;2022-08-19T15:37:33;10.60;;;7.53;;
54557;SDS011;40452;50.080;20.040;2022-08-19T15:39:59;16.35;;;8.45;;
54557;SDS011;40452;50.080;20.040;2022-08-19T15:42:24;9.98;;;8.52;;
54557;SDS011;40452;50.080;20.040;2022-08-19T15:44:51;13.32;;;8.00;;
54557;SDS011;40452;50.080;20.040;2022-08-19T15:47:16;13.07;;;8.20;;
54557;SDS011;40452;50.080;20.040;2022-08-19T15:49:44;12.63;;;8.45;;
54557;SDS011;40452;50.080;20.040;2022-08-19T15:52:09;13.82;;;9.85;;
54557;SDS011;40452;50.080;20.040;2022-08-19T15:54:35;12.88;;;8.82;;
54557;SDS011;40452;50.080;20.040;2022-08-19T15:57:00;17.60;;;8.43;;
54557;SDS011;40452;50.080;20.040;2022-08-19T15:59:44;14.10;;;8.82;;
54557;SDS011;40452;50.080;20.040;2022-08-19T16:02:28;17.05;;;9.02;;
54557;SDS011;40452;50.080;20.040;2022-08-19T16:05:15;13.35;;;9.02;;
54557;SDS011;40452;50.080;20.040;2022-08-19T16:08:02;15.13;;;9.00;;
54557;SDS011;40452;50.080;20.040;2022-08-19T16:10:28;12.70;;;8.95;;
54557;SDS011;40452;50.080;20.040;2022-08-19T16:12:57;13.65;;;8.48;;
54557;SDS011;40452;50.080;20.040;2022-08-19T16:15:27;21.60;;;8.75;;
54557;SDS011;40452;50.080;20.040;2022-08-19T16:17:54;12.05;;;8.73;;
54557;SDS011;40452;50.080;20.040;2022-08-19T16:20:21;14.10;;;9.30;;
54557;SDS011;40452;50.080;20.040;2022-08-19T16:22:47;14.38;;;9.02;;
54557;SDS011;40452;50.080;20.040;2022-08-19T16:25:13;11.82;;;8.85;;
54557;SDS011;40452;50.080;20.040;2022-08-19T16:27:39;10.70;;;8.85;;
54557;SDS011;40452;50.080;20.040;2022-08-19T16:30:05;13.73;;;8.70;;
54557;SDS011;40452;50.080;20.040;2022-08-19T16:32:31;12.27;;;9.40;;
54557;SDS011;40452;50.080;20.040;2022-08-19T16:34:57;16.17;;;9.45;;
54557;SDS011;40452;50.080;20.040;2022-08-19T16:37:23;13.55;;;10.10;;
54557;SDS011;40452;50.080;20.040;2022-08-19T16:39:49;11.32;;;9.65;;
54557;SDS011;40452;50.080;20.040;2022-08-19T16:42:14;14.35;;;9.70;;
54557;SDS011;40452;50.080;20.040;2022-08-19T16:44:41;11.38;;;9.32;;
54557;SDS011;40452;50.080;20.040;2022-08-19T16:47:09;11.32;;;8.93;;
54557;SDS011;40452;50.080;20.040;2022-08-19T16:49:36;11.27;;;8.77;;
54557;SDS011;40452;50.080;20.040;2022-08-19T16:52:02;11.85;;;8.98;;
54557;SDS011;40452;50.080;20.040;2022-08-19T16:54:29;15.55;;;9.15;;
54557;SDS011;40452;50.080;20.040;2022-08-19T16:56:55;11.60;;;8.98;;
54557;SDS011;40452;50.080;20.040;2022-08-19T16:59:21;12.07;;;8.63;;
54557;SDS011;40452;50.080;20.040;2022-08-19T17:01:48;11.30;;;8.98;;
54557;SDS011;40452;50.080;20.040;2022-08-19T17:04:13;13.65;;;9.20;;
54557;SDS011;40452;50.080;20.040;2022-08-19T17:06:39;12.32;;;9.63;;
54557;SDS011;40452;50.080;20.040;2022-08-19T17:09:06;12.98;;;9.32;;
54557;SDS011;40452;50.080;20.040;2022-08-19T17:11:32;16.55;;;9.20;;
54557;SDS011;40452;50.080;20.040;2022-08-19T17:13:59;14.48;;;9.55;;
54557;SDS011;40452;50.080;20.040;2022-08-19T17:16:27;11.05;;;9.20;;
54557;SDS011;40452;50.080;20.040;2022-08-19T17:18:55;11.32;;;9.30;;
54557;SDS011;40452;50.080;20.040;2022-08-19T17:21:29;14.98;;;9.35;;
54557;SDS011;40452;50.080;20.040;2022-08-19T17:23:56;11.48;;;8.85;;
54557;SDS011;40452;50.080;20.040;2022-08-19T17:26:23;11.10;;;9.10;;
54557;SDS011;40452;50.080;20.040;2022-08-19T17:28:51;11.30;;;9.18;;
54557;SDS011;40452;50.080;20.040;2022-08-19T17:31:18;15.25;;;10.00;;
54557;SDS011;40452;50.080;20.040;2022-08-19T17:33:46;10.50;;;8.77;;
54557;SDS011;40452;50.080;20.040;2022-08-19T17:36:12;12.35;;;9.18;;
54557;SDS011;40452;50.080;20.040;2022-08-19T17:38:38;17.17;;;8.95;;
54557;SDS011;40452;50.080;20.040;2022-08-19T17:41:04;11.13;;;9.27;;
54557;SDS011;40452;50.080;20.040;2022-08-19T17:43:33;14.23;;;9.68;;
54557;SDS011;40452;50.080;20.040;2022-08-19T17:46:00;13.93;;;9.55;;
54557;SDS011;40452;50.080;20.040;2022-08-19T17:48:32;11.65;;;9.55;;
54557;SDS011;40452;50.080;20.040;2022-08-19T17:51:12;13.32;;;9.05;;
54557;SDS011;40452;50.080;20.040;2022-08-19T17:53:38;14.13;;;9.48;;
54557;SDS011;40452;50.080;20.040;2022-08-19T17:56:05;14.60;;;8.60;;
54557;SDS011;40452;50.080;20.040;2022-08-19T17:58:30;14.90;;;9.35;;
54557;SDS011;40452;50.080;20.040;2022-08-19T18:00:56;11.93;;;9.43;;
54557;SDS011;40452;50.080;20.040;2022-08-19T18:03:24;13.32;;;9.70;;
54557;SDS011;40452;50.080;20.040;2022-08-19T18:05:54;13.50;;;9.02;;
54557;SDS011;40452;50.080;20.040;2022-08-19T18:08:20;12.65;;;9.27;;
54557;SDS011;40452;50.080;20.040;2022-08-19T18:10:47;19.73;;;9.75;;
54557;SDS011;40452;50.080;20.040;2022-08-19T18:13:13;14.73;;;9.40;;
54557;SDS011;40452;50.080;20.040;2022-08-19T18:15:39;18.70;;;10.75;;
54557;SDS011;40452;50.080;20.040;2022-08-19T18:18:06;13.70;;;9.82;;
54557;SDS011;40452;50.080;20.040;2022-08-19T18:20:33;20.70;;;10.80;;
54557;SDS011;40452;50.080;20.040;2022-08-19T18:22:59;17.85;;;10.60;;
54557;SDS011;40452;50.080;20.040;2022-08-19T18:25:25;19.02;;;10.52;;
54557;SDS011;40452;50.080;20.040;2022-08-19T18:27:52;15.27;;;10.45;;
54557;SDS011;40452;50.080;20.040;2022-08-19T18:30:20;18.40;;;11.10;;
54557;SDS011;40452;50.080;20.040;2022-08-19T18:32:47;16.88;;;10.57;;
54557;SDS011;40452;50.080;20.040;2022-08-19T18:35:24;15.23;;;10.88;;
54557;SDS011;40452;50.080;20.040;2022-08-19T18:37:53;13.68;;;10.43;;
54557;SDS011;40452;50.080;20.040;2022-08-19T18:40:21;15.25;;;10.02;;
54557;SDS011;40452;50.080;20.040;2022-08-19T18:43:06;19.20;;;10.55;;
54557;SDS011;40452;50.080;20.040;2022-08-19T18:45:35;13.32;;;10.48;;
54557;SDS011;40452;50.080;20.040;2022-08-19T18:48:20;15.63;;;10.65;;
54557;SDS011;40452;50.080;20.040;2022-08-19T18:51:05;15.15;;;11.10;;
54557;SDS011;40452;50.080;20.040;2022-08-19T18:53:32;15.55;;;10.88;;
54557;SDS011;40452;50.080;20.040;2022-08-19T18:55:59;15.55;;;10.80;;
54557;SDS011;40452;50.080;20.040;2022-08-19T18:58:27;18.27;;;11.48;;
54557;SDS011;40452;50.080;20.040;2022-08-19T19:00:59;15.68;;;11.07;;
54557;SDS011;40452;50.080;20.040;2022-08-19T19:03:33;19.95;;;11.20;;
54557;SDS011;40452;50.080;20.040;2022-08-19T19:05:58;14.52;;;11.52;;
54557;SDS011;40452;50.080;20.040;2022-08-19T19:08:24;16.38;;;11.18;;
54557;SDS011;40452;50.080;20.040;2022-08-19T19:10:49;14.82;;;11.52;;
54557;SDS011;40452;50.080;20.040;2022-08-19T19:13:15;19.13;;;11.18;;